Time;durP1;ratioP1;P1;durP2;ratioP2;P2;SDS_P1;SDS_P2;PMS_P1;PMS_P2;Temp;Humidity;BMP_temperature;BMP_pressure;BME280_temperature;BME280_humidity;BME280_pressure;Samples;Min_cycle;Max_cycle;Signal;HPM_P1;HPM_P2
2022/05/28 00:01:04;;;;;;;;;;;;;;;8.48;62.81;99444.45;106274;1268;124386;-72
2022/05/28 00:03:32;;;;;;;;;;;;;;;8.45;63.02;99446.48;106374;1267;96616;-73
2022/05/28 00:06:00;;;;;;;;;;;;;;;8.43;63.09;99445.49;107522;1268;96545;-71
2022/05/28 00:08:28;;;;;;;;;;;;;;;8.41;63.21;99445.05;106314;1268;124345;-73
2022/05/28 00:10:57;;;;;;;;;;;;;;;8.38;63.30;99444.97;106417;1267;109140;-73
2022/05/28 00:13:24;;;;;;;;;;;;;;;8.36;63.19;99451.30;106235;1267;124581;-73
2022/05/28 00:15:52;;;;;;;;;;;;;;;8.34;63.39;99451.02;106367;1268;96479;-72
2022/05/28 00:18:20;;;;;;;;;;;;;;;8.32;63.62;99454.89;107830;1267;94990;-73
2022/05/28 00:20:47;;;;;;;;;;;;;;;8.29;63.57;99460.20;107754;1267;124852;-74
2022/05/28 00:23:15;;;;;;;;;;;;;;;8.27;63.75;99456.11;107853;1267;109725;-73
2022/05/28 00:25:42;;;;;;;;;;;;;;;8.26;63.54;99456.48;107709;1268;124916;-74
2022/05/28 00:28:10;;;;;;;;;;;;;;;8.26;63.78;99459.27;107885;1267;94700;-74
2022/05/28 00:30:38;;;;;;;;;;;;;;;8.25;63.75;99459.63;107805;1267;94840;-73
2022/05/28 00:33:05;;;;;;;;;;;;;;;8.24;63.83;99460.48;106933;1267;124791;-72
2022/05/28 00:35:33;;;;;;;;;;;;;;;8.24;63.80;99459.14;106320;1267;108485;-72
2022/05/28 00:38:00;;;;;;;;;;;;;;;8.22;63.95;99460.78;106293;1267;124558;-72
2022/05/28 00:40:28;;;;;;;;;;;;;;;8.21;63.96;99457.86;106350;1267;96484;-71
2022/05/28 00:42:58;;;;;;;;;;;;;;;8.20;63.84;99456.52;106320;1268;124518;-71
2022/05/28 00:45:26;;;;;;;;;;;;;;;8.18;63.94;99455.21;106362;1268;110614;-71
2022/05/28 00:47:55;;;;;;;;;;;;;;;8.15;64.20;99457.23;107828;1267;108387;-72
2022/05/28 00:50:23;;;;;;;;;;;;;;;8.13;63.97;99454.14;107728;1267;124517;-73
2022/05/28 00:52:51;;;;;;;;;;;;;;;8.12;64.08;99450.39;107846;1267;94607;-72
2022/05/28 00:55:20;;;;;;;;;;;;;;;8.12;64.11;99442.60;107738;1267;124508;-73
2022/05/28 00:57:48;;;;;;;;;;;;;;;8.11;64.14;99446.10;107835;1268;110206;-73
2022/05/28 01:00:18;;;;;;;;;;;;;;;8.11;64.26;99444.91;107853;1268;109042;-73
2022/05/28 01:02:51;;;;;;;;;;;;;;;8.08;64.10;99438.94;107753;1267;125053;-73
2022/05/28 01:05:23;;;;;;;;;;;;;;;8.07;64.30;99439.99;107883;1267;94758;-72
2022/05/28 01:07:57;;;;;;;;;;;;;;;8.05;64.35;99436.94;106801;1268;124581;-72
2022/05/28 01:10:29;;;;;;;;;;;;;;;8.06;64.43;99435.52;106496;1268;110528;-72
2022/05/28 01:13:04;;;;;;;;;;;;;;;8.06;64.55;99432.58;106423;1268;125291;-73
2022/05/28 01:15:33;;;;;;;;;;;;;;;8.04;64.64;99432.14;107841;1268;108892;-73
2022/05/28 01:18:04;;;;;;;;;;;;;;;8.03;64.59;99432.87;107870;1266;95361;-73
2022/05/28 01:20:34;;;;;;;;;;;;;;;8.03;64.77;99430.45;107773;1268;125318;-74
2022/05/28 01:23:12;;;;;;;;;;;;;;;8.02;64.83;99430.80;107952;1267;111437;-73
2022/05/28 01:25:47;;;;;;;;;;;;;;;8.00;64.85;99430.89;106709;1268;125048;-73
2022/05/28 01:28:16;;;;;;;;;;;;;;;8.00;64.88;99428.48;106528;1268;108565;-73
2022/05/28 01:30:44;;;;;;;;;;;;;;;7.99;64.95;99428.34;106558;1268;96452;-72
2022/05/28 01:33:13;;;;;;;;;;;;;;;7.97;65.10;99425.98;106532;1268;124254;-72
2022/05/28 01:35:42;;;;;;;;;;;;;;;7.95;65.10;99423.45;106697;1268;110672;-73
2022/05/28 01:38:11;;;;;;;;;;;;;;;7.93;65.31;99422.34;106951;1267;124434;-73
2022/05/28 01:40:40;;;;;;;;;;;;;;;7.90;65.27;99421.55;107863;1267;108847;-74
2022/05/28 01:43:09;;;;;;;;;;;;;;;7.88;65.45;99415.73;107718;1267;124699;-72
2022/05/28 01:45:40;;;;;;;;;;;;;;;7.87;65.52;99417.14;107847;1267;94670;-73
2022/05/28 01:48:08;;;;;;;;;;;;;;;7.84;65.54;99414.81;107842;1267;112120;-74
2022/05/28 01:50:39;;;;;;;;;;;;;;;7.83;65.80;99416.41;106580;1267;124660;-73
2022/05/28 01:53:08;;;;;;;;;;;;;;;7.83;65.74;99409.65;106409;1268;108430;-71
2022/05/28 01:55:38;;;;;;;;;;;;;;;7.82;65.93;99410.20;106290;1268;124889;-71
2022/05/28 01:58:06;;;;;;;;;;;;;;;7.79;65.86;99411.19;106454;1268;96472;-72
2022/05/28 02:00:34;;;;;;;;;;;;;;;7.79;65.94;99406.54;106387;1268;111465;-73
2022/05/28 02:03:03;;;;;;;;;;;;;;;7.77;65.91;99403.83;106260;1270;124612;-72
2022/05/28 02:05:31;;;;;;;;;;;;;;;7.77;65.97;99405.21;106442;1268;108321;-71
2022/05/28 02:07:58;;;;;;;;;;;;;;;7.78;66.12;99403.80;106424;1268;124674;-72
2022/05/28 02:10:26;;;;;;;;;;;;;;;7.77;66.12;99401.73;106459;1268;96645;-72
2022/05/28 02:13:07;;;;;;;;;;;;;;;7.78;66.14;99401.69;106271;1268;124987;-70
2022/05/28 02:15:39;;;;;;;;;;;;;;;7.80;66.35;99400.11;106384;1268;109036;-73
2022/05/28 02:18:12;;;;;;;;;;;;;;;7.79;66.26;99399.41;106415;1268;109317;-74
2022/05/28 02:20:44;;;;;;;;;;;;;;;7.80;66.37;99398.69;106420;1268;124926;-72
2022/05/28 02:23:21;;;;;;;;;;;;;;;7.82;66.38;99390.48;106498;1268;96407;-72
2022/05/28 02:25:52;;;;;;;;;;;;;;;7.83;66.27;99390.61;106368;1267;124363;-72
2022/05/28 02:28:23;;;;;;;;;;;;;;;7.84;66.50;99395.29;107861;1268;109007;-72
2022/05/28 02:30:52;;;;;;;;;;;;;;;7.84;66.37;99397.34;107729;1268;125231;-72
2022/05/28 02:33:20;;;;;;;;;;;;;;;7.85;66.44;99396.79;107864;1268;94819;-72
2022/05/28 02:35:49;;;;;;;;;;;;;;;7.85;66.55;99393.30;107931;1267;94689;-72
2022/05/28 02:38:17;;;;;;;;;;;;;;;7.87;66.50;99386.67;106863;1268;124420;-72
2022/05/28 02:40:45;;;;;;;;;;;;;;;7.89;66.45;99394.55;106520;1268;109476;-72
2022/05/28 02:43:12;;;;;;;;;;;;;;;7.90;66.36;99388.32;106359;1268;125109;-71
2022/05/28 02:45:41;;;;;;;;;;;;;;;7.92;66.44;99384.81;107862;1268;94934;-73
2022/05/28 02:48:08;;;;;;;;;;;;;;;7.93;66.31;99383.36;107875;1267;94533;-73
2022/05/28 02:50:36;;;;;;;;;;;;;;;7.94;66.35;99382.64;106959;1267;124445;-73
2022/05/28 02:53:03;;;;;;;;;;;;;;;7.96;66.39;99382.91;106507;1267;96583;-73
2022/05/28 02:55:32;;;;;;;;;;;;;;;7.99;66.45;99382.30;106381;1268;124548;-73
2022/05/28 02:58:00;;;;;;;;;;;;;;;8.03;66.44;99382.14;107055;1268;96454;-73
2022/05/28 03:00:27;;;;;;;;;;;;;;;8.10;66.58;99382.08;106451;1268;96393;-73
2022/05/28 03:02:55;;;;;;;;;;;;;;;8.17;66.53;99382.67;106460;1268;124372;-73
2022/05/28 03:05:24;;;;;;;;;;;;;;;8.23;66.43;99385.08;106491;1268;96496;-73
2022/05/28 03:07:52;;;;;;;;;;;;;;;8.27;66.44;99386.83;106454;1268;124322;-72
2022/05/28 03:10:19;;;;;;;;;;;;;;;8.32;66.22;99387.86;106406;1270;96581;-73
2022/05/28 03:12:47;;;;;;;;;;;;;;;8.37;66.25;99386.14;106528;1268;96793;-73
2022/05/28 03:15:14;;;;;;;;;;;;;;;8.41;66.17;99384.77;106393;1268;111124;-72
2022/05/28 03:17:43;;;;;;;;;;;;;;;8.42;66.23;99385.91;106472;1268;96465;-73
2022/05/28 03:20:11;;;;;;;;;;;;;;;8.45;66.21;99383.23;106316;1268;125083;-73
2022/05/28 03:22:39;;;;;;;;;;;;;;;8.49;66.17;99385.52;107850;1266;94795;-74
2022/05/28 03:25:07;;;;;;;;;;;;;;;8.52;66.04;99382.80;107257;1266;124575;-73
2022/05/28 03:27:34;;;;;;;;;;;;;;;8.55;65.97;99382.53;106928;1268;110208;-73
2022/05/28 03:30:02;;;;;;;;;;;;;;;8.56;65.95;99383.67;106531;1268;107753;-72
2022/05/28 03:32:29;;;;;;;;;;;;;;;8.60;65.98;99383.01;106431;1268;124510;-73
2022/05/28 03:34:57;;;;;;;;;;;;;;;8.65;66.00;99385.10;106484;1268;96582;-73
2022/05/28 03:37:24;;;;;;;;;;;;;;;8.69;65.94;99375.92;106667;1268;124537;-73
2022/05/28 03:39:53;;;;;;;;;;;;;;;8.75;65.85;99378.10;107838;1267;109909;-74
2022/05/28 03:42:20;;;;;;;;;;;;;;;8.80;65.76;99373.61;107072;1268;108003;-73
2022/05/28 03:44:48;;;;;;;;;;;;;;;8.85;65.70;99373.91;106343;1268;124441;-73
2022/05/28 03:47:15;;;;;;;;;;;;;;;8.90;65.62;99369.55;106392;1268;96480;-72
2022/05/28 03:49:43;;;;;;;;;;;;;;;8.93;65.48;99376.35;106286;1268;125323;-73
2022/05/28 03:52:11;;;;;;;;;;;;;;;8.96;65.43;99378.67;106416;1268;110484;-72
2022/05/28 03:54:43;;;;;;;;;;;;;;;8.99;65.50;99374.73;106400;1268;108880;-72
2022/05/28 03:57:17;;;;;;;;;;;;;;;9.02;65.32;99371.17;107733;1267;124908;-72
2022/05/28 03:59:44;;;;;;;;;;;;;;;9.03;65.43;99369.57;107809;1267;95769;-73
2022/05/28 04:02:13;;;;;;;;;;;;;;;9.05;65.49;99373.13;106931;1268;124333;-73
2022/05/28 04:04:41;;;;;;;;;;;;;;;9.08;65.82;99370.38;106414;1267;110697;-72
2022/05/28 04:07:10;;;;;;;;;;;;;;;9.11;65.63;99374.60;106365;1267;124701;-71
2022/05/28 04:09:37;;;;;;;;;;;;;;;9.14;65.64;99379.16;106445;1268;109259;-72
2022/05/28 04:12:06;;;;;;;;;;;;;;;9.14;65.62;99378.66;106450;1268;96551;-72
2022/05/28 04:14:34;;;;;;;;;;;;;;;9.12;65.60;99379.06;107060;1268;125125;-73
2022/05/28 04:17:01;;;;;;;;;;;;;;;9.10;65.61;99373.97;106387;1268;110695;-73
2022/05/28 04:19:29;;;;;;;;;;;;;;;9.09;65.59;99369.66;106328;1267;124658;-73
2022/05/28 04:21:57;;;;;;;;;;;;;;;9.11;65.66;99376.02;106502;1268;108998;-73
2022/05/28 04:24:25;;;;;;;;;;;;;;;9.09;65.70;99374.52;106473;1268;97854;-73
2022/05/28 04:26:53;;;;;;;;;;;;;;;9.09;65.71;99380.77;106318;1268;124694;-74
2022/05/28 04:29:20;;;;;;;;;;;;;;;9.11;65.77;99380.86;106489;1268;111850;-72
2022/05/28 04:31:48;;;;;;;;;;;;;;;9.15;65.72;99372.58;106428;1268;124772;-73
2022/05/28 04:34:15;;;;;;;;;;;;;;;9.19;65.59;99375.69;106390;1268;99109;-73
2022/05/28 04:36:43;;;;;;;;;;;;;;;9.23;65.62;99373.96;106469;1268;97814;-73
2022/05/28 04:39:10;;;;;;;;;;;;;;;9.28;65.54;99376.52;106409;1268;125020;-73
2022/05/28 04:41:37;;;;;;;;;;;;;;;9.32;65.43;99370.47;106444;1268;97812;-73
2022/05/28 04:44:05;;;;;;;;;;;;;;;9.36;65.33;99369.63;106412;1268;124697;-73
2022/05/28 04:46:33;;;;;;;;;;;;;;;9.37;65.05;99371.99;107836;1268;108909;-73
2022/05/28 04:49:01;;;;;;;;;;;;;;;9.41;65.06;99372.89;107404;1268;124940;-73
2022/05/28 04:51:28;;;;;;;;;;;;;;;9.45;65.02;99366.64;106426;1268;97883;-73
2022/05/28 04:53:56;;;;;;;;;;;;;;;9.51;64.89;99372.47;106431;1268;97933;-73
2022/05/28 04:56:23;;;;;;;;;;;;;;;9.56;64.81;99373.80;106360;1268;124520;-73
2022/05/28 04:58:51;;;;;;;;;;;;;;;9.58;64.76;99372.48;107403;1268;97801;-73
2022/05/28 05:01:19;;;;;;;;;;;;;;;9.61;64.61;99378.30;107603;1268;125784;-73
2022/05/28 05:03:47;;;;;;;;;;;;;;;9.61;64.48;99377.25;106596;1268;97825;-73
2022/05/28 05:06:15;;;;;;;;;;;;;;;9.62;64.45;99377.17;106911;1268;112639;-73
2022/05/28 05:08:43;;;;;;;;;;;;;;;9.65;64.30;99376.04;107776;1267;124785;-74
2022/05/28 05:11:11;;;;;;;;;;;;;;;9.65;64.23;99378.27;107852;1268;107805;-73
2022/05/28 05:13:39;;;;;;;;;;;;;;;9.70;64.17;99386.59;107444;1268;124990;-73
2022/05/28 05:16:09;;;;;;;;;;;;;;;9.75;64.10;99390.02;106479;1268;97819;-73
2022/05/28 05:18:38;;;;;;;;;;;;;;;9.83;64.04;99392.44;107837;1268;112836;-73
2022/05/28 05:21:05;;;;;;;;;;;;;;;9.94;63.83;99383.13;106493;1268;124495;-73
2022/05/28 05:23:33;;;;;;;;;;;;;;;10.13;63.58;99384.20;106311;1268;108178;-72
2022/05/28 05:26:01;;;;;;;;;;;;;;;10.40;63.10;99380.97;107783;1268;124861;-73
2022/05/28 05:28:29;;;;;;;;;;;;;;;10.60;62.60;99379.50;107861;1268;95995;-73
2022/05/28 05:30:56;;;;;;;;;;;;;;;10.85;62.21;99382.31;107785;1268;124587;-73
2022/05/28 05:33:24;;;;;;;;;;;;;;;11.00;61.35;99381.13;106711;1268;107692;-73
2022/05/28 05:35:51;;;;;;;;;;;;;;;11.01;61.10;99379.48;106385;1268;108837;-73
2022/05/28 05:38:19;;;;;;;;;;;;;;;11.08;60.97;99381.24;106332;1268;124309;-73
2022/05/28 05:40:50;;;;;;;;;;;;;;;11.27;60.71;99379.66;106469;1268;97815;-72
2022/05/28 05:43:18;;;;;;;;;;;;;;;11.34;60.30;99378.24;107765;1268;125507;-74
2022/05/28 05:45:52;;;;;;;;;;;;;;;11.27;60.22;99382.40;107834;1268;107770;-73
2022/05/28 05:48:20;;;;;;;;;;;;;;;11.22;60.12;99382.46;107857;1268;107705;-73
2022/05/28 05:50:48;;;;;;;;;;;;;;;11.78;59.85;99381.45;107765;1268;124245;-73
2022/05/28 05:53:15;;;;;;;;;;;;;;;12.01;58.80;99379.39;107871;1268;97177;-72
2022/05/28 05:55:43;;;;;;;;;;;;;;;12.98;57.92;99374.67;107767;1268;124059;-73
2022/05/28 05:58:10;;;;;;;;;;;;;;;15.13;55.69;99372.00;107876;1268;107786;-73
2022/05/28 06:00:39;;;;;;;;;;;;;;;16.92;51.90;99361.34;107868;1267;107768;-74
2022/05/28 06:03:06;;;;;;;;;;;;;;;17.73;48.94;99358.58;106532;1268;123978;-73
2022/05/28 06:05:34;;;;;;;;;;;;;;;17.39;47.54;99357.41;106468;1268;97841;-72
2022/05/28 06:08:03;;;;;;;;;;;;;;;17.48;47.95;99363.98;106353;1268;124172;-73
2022/05/28 06:10:31;;;;;;;;;;;;;;;18.35;45.75;99351.64;106496;1268;108131;-73
2022/05/28 06:12:58;;;;;;;;;;;;;;;18.57;44.24;99356.65;106366;1268;126583;-72
2022/05/28 06:15:26;;;;;;;;;;;;;;;17.79;43.88;99353.02;106423;1268;98960;-72
2022/05/28 06:17:53;;;;;;;;;;;;;;;17.86;43.84;99348.41;106504;1268;97825;-73
2022/05/28 06:20:21;;;;;;;;;;;;;;;18.54;44.45;99350.98;106422;1268;124008;-73
2022/05/28 06:22:49;;;;;;;;;;;;;;;19.64;41.98;99343.33;106496;1268;108567;-73
2022/05/28 06:25:17;;;;;;;;;;;;;;;21.00;41.35;99341.57;106347;1267;124379;-73
2022/05/28 06:27:46;;;;;;;;;;;;;;;21.58;38.71;99330.63;106356;1268;97878;-73
2022/05/28 06:30:15;;;;;;;;;;;;;;;21.67;37.83;99327.73;106339;1268;97789;-73
2022/05/28 06:32:42;;;;;;;;;;;;;;;22.60;37.53;99328.58;106830;1268;124668;-74
2022/05/28 06:35:10;;;;;;;;;;;;;;;23.68;34.97;99323.27;106484;1268;108302;-72
2022/05/28 06:37:38;;;;;;;;;;;;;;;23.98;34.82;99322.68;106351;1268;124140;-73
2022/05/28 06:40:07;;;;;;;;;;;;;;;23.21;34.04;99326.34;107859;1268;96044;-74
2022/05/28 06:42:35;;;;;;;;;;;;;;;23.30;34.51;99324.59;107877;1268;96257;-75
2022/05/28 06:45:02;;;;;;;;;;;;;;;24.41;33.74;99325.34;107269;1268;123973;-74
2022/05/28 06:47:30;;;;;;;;;;;;;;;24.45;32.56;99330.23;106408;1268;108805;-74
2022/05/28 06:52:43;;;;;;;;;;;;;;;22.84;33.58;99325.77;106411;1268;97831;-73
2022/05/28 06:55:11;;;;;;;;;;;;;;;23.23;33.47;99320.09;106386;1268;124313;-72
2022/05/28 06:57:38;;;;;;;;;;;;;;;24.02;33.06;99320.27;106474;1268;112446;-73
2022/05/28 07:00:09;;;;;;;;;;;;;;;24.93;32.53;99320.42;107877;1268;109206;-74
2022/05/28 07:02:37;;;;;;;;;;;;;;;24.51;31.58;99321.39;107365;1268;124794;-74
2022/05/28 07:05:05;;;;;;;;;;;;;;;22.82;32.30;99335.44;106469;1268;98452;-73
2022/05/28 07:07:33;;;;;;;;;;;;;;;21.32;33.05;99332.61;107724;1267;125117;-73
2022/05/28 07:10:00;;;;;;;;;;;;;;;20.10;33.86;99338.48;106519;1267;111400;-74
2022/05/28 07:12:28;;;;;;;;;;;;;;;19.95;35.33;99340.73;106582;1268;106574;-73
2022/05/28 07:14:55;;;;;;;;;;;;;;;19.64;35.34;99328.86;106398;1268;124351;-76
2022/05/28 07:17:23;;;;;;;;;;;;;;;18.89;35.63;99329.02;106551;1268;97892;-74
2022/05/28 07:19:51;;;;;;;;;;;;;;;18.05;35.55;99325.30;106488;1268;124208;-74
2022/05/28 07:22:18;;;;;;;;;;;;;;;17.19;36.38;99330.73;106327;1268;111705;-74
2022/05/28 07:24:46;;;;;;;;;;;;;;;16.50;37.57;99334.38;106400;1268;107885;-74
2022/05/28 07:27:13;;;;;;;;;;;;;;;16.23;38.45;99339.77;106393;1268;109095;-72
2022/05/28 07:29:41;;;;;;;;;;;;;;;16.56;38.26;99325.19;106415;1268;97827;-73
2022/05/28 07:32:08;;;;;;;;;;;;;;;16.18;38.66;99340.30;106269;1268;124405;-72
2022/05/28 07:34:36;;;;;;;;;;;;;;;15.52;39.54;99341.46;106447;1267;112069;-73
2022/05/28 07:37:04;;;;;;;;;;;;;;;14.95;40.59;99340.17;106324;1268;124489;-73
2022/05/28 07:39:32;;;;;;;;;;;;;;;15.63;41.08;99335.44;107832;1268;108884;-73
2022/05/28 07:42:02;;;;;;;;;;;;;;;17.30;39.42;99334.36;107856;1267;95976;-73
2022/05/28 07:44:29;;;;;;;;;;;;;;;17.54;38.15;99324.84;107850;1267;124600;-73
2022/05/28 07:46:57;;;;;;;;;;;;;;;17.86;38.73;99342.63;106820;1268;112459;-73
2022/05/28 07:49:24;;;;;;;;;;;;;;;19.26;37.68;99341.05;107771;1268;125207;-72
2022/05/28 07:51:53;;;;;;;;;;;;;;;20.58;35.98;99341.45;107857;1267;107629;-73
2022/05/28 07:54:20;;;;;;;;;;;;;;;21.20;35.18;99333.78;106947;1268;97833;-73
2022/05/28 07:56:48;;;;;;;;;;;;;;;21.97;34.26;99334.38;106408;1268;126031;-73
2022/05/28 07:59:15;;;;;;;;;;;;;;;22.99;32.16;99325.55;106551;1268;112458;-71
2022/05/28 08:01:43;;;;;;;;;;;;;;;23.45;30.60;99325.20;106352;1268;124307;-72
2022/05/28 08:04:13;;;;;;;;;;;;;;;23.49;29.39;99320.08;107795;1266;108294;-72
2022/05/28 08:06:41;;;;;;;;;;;;;;;22.60;29.05;99319.71;106176;1271;97999;-72
2022/05/28 08:09:10;;;;;;;;;;;;;;;21.90;29.96;99328.93;106346;1268;124619;-71
2022/05/28 08:11:38;;;;;;;;;;;;;;;21.62;30.12;99329.36;106496;1268;111984;-72
2022/05/28 08:14:06;;;;;;;;;;;;;;;21.05;30.63;99334.96;106347;1268;124157;-72
2022/05/28 08:16:33;;;;;;;;;;;;;;;20.68;31.39;99329.80;106367;1268;108944;-74
2022/05/28 08:19:01;;;;;;;;;;;;;;;20.55;31.96;99341.17;106242;1268;124472;-73
2022/05/28 08:24:14;;;;;;;;;;;;;;;21.51;31.81;99331.31;106430;1268;112038;-72
2022/05/28 08:26:42;;;;;;;;;;;;;;;21.52;31.30;99325.88;106351;1268;124356;-73
2022/05/28 08:29:11;;;;;;;;;;;;;;;21.14;31.16;99330.08;106367;1268;108457;-72
2022/05/28 08:31:39;;;;;;;;;;;;;;;20.56;31.52;99334.52;106464;1268;124355;-72
2022/05/28 08:34:07;;;;;;;;;;;;;;;20.40;32.06;99328.12;107863;1268;96004;-71
2022/05/28 08:36:35;;;;;;;;;;;;;;;19.94;33.28;99329.14;106604;1268;110417;-73
2022/05/28 08:39:02;;;;;;;;;;;;;;;20.02;33.00;99327.20;106269;1268;124538;-73
2022/05/28 08:41:35;;;;;;;;;;;;;;;20.29;32.38;99324.73;106411;1267;108945;-72
2022/05/28 08:44:08;;;;;;;;;;;;;;;20.65;32.34;99326.67;106651;1268;124845;-73
2022/05/28 08:46:36;;;;;;;;;;;;;;;21.14;31.55;99317.86;107878;1268;96307;-73
2022/05/28 08:49:05;;;;;;;;;;;;;;;21.46;31.35;99316.01;106578;1268;124227;-73
2022/05/28 08:51:35;;;;;;;;;;;;;;;21.19;31.10;99323.20;106411;1268;109014;-73
2022/05/28 08:54:06;;;;;;;;;;;;;;;21.04;31.17;99316.94;106448;1267;109051;-74
2022/05/28 08:56:33;;;;;;;;;;;;;;;21.50;31.65;99308.91;106355;1268;124357;-74
2022/05/28 08:59:03;;;;;;;;;;;;;;;21.92;30.45;99316.02;106399;1268;97832;-73
2022/05/28 09:01:32;;;;;;;;;;;;;;;21.63;29.41;99310.33;106387;1268;124231;-73
2022/05/28 09:04:01;;;;;;;;;;;;;;;20.84;29.85;99313.52;106455;1268;108522;-73
2022/05/28 09:06:32;;;;;;;;;;;;;;;20.20;30.63;99324.12;106393;1268;108581;-72
2022/05/28 09:09:00;;;;;;;;;;;;;;;19.51;31.48;99332.05;106351;1268;124408;-72
2022/05/28 09:11:32;;;;;;;;;;;;;;;18.86;32.65;99336.36;106468;1268;97823;-72
2022/05/28 09:14:03;;;;;;;;;;;;;;;18.30;33.95;99334.65;106355;1268;124080;-72
2022/05/28 09:16:33;;;;;;;;;;;;;;;18.60;34.70;99341.38;106454;1267;108896;-73
2022/05/28 09:19:02;;;;;;;;;;;;;;;19.14;34.49;99337.61;107760;1267;124998;-73
2022/05/28 09:21:30;;;;;;;;;;;;;;;19.81;34.11;99322.70;107851;1267;96185;-73
2022/05/28 09:23:58;;;;;;;;;;;;;;;20.31;32.55;99313.23;107932;1268;95778;-73
2022/05/28 09:26:29;;;;;;;;;;;;;;;20.74;32.31;99313.36;107742;1267;124580;-72
2022/05/28 09:29:01;;;;;;;;;;;;;;;21.20;31.79;99308.13;107901;1268;108997;-72
2022/05/28 09:31:36;;;;;;;;;;;;;;;21.54;31.03;99306.23;107730;1267;124726;-72
2022/05/28 09:34:08;;;;;;;;;;;;;;;21.54;30.60;99311.56;107662;1268;97882;-72
2022/05/28 09:36:40;;;;;;;;;;;;;;;21.18;30.36;99313.23;106731;1268;97801;-73
2022/05/28 09:39:13;;;;;;;;;;;;;;;20.93;30.03;99312.70;107782;1267;123836;-73
2022/05/28 09:41:47;;;;;;;;;;;;;;;20.47;30.15;99309.73;107916;1266;106415;-73
2022/05/28 09:44:24;;;;;;;;;;;;;;;20.29;30.98;99312.01;106862;1268;124116;-72
2022/05/28 09:46:51;;;;;;;;;;;;;;;19.74;31.00;99313.02;106404;1268;97867;-73
2022/05/28 09:49:20;;;;;;;;;;;;;;;18.97;31.65;99302.70;106343;1268;124194;-74
2022/05/28 09:51:52;;;;;;;;;;;;;;;18.33;32.64;99305.57;106417;1268;112105;-73
2022/05/28 09:54:23;;;;;;;;;;;;;;;17.94;33.43;99305.46;106391;1268;110444;-74
2022/05/28 09:56:58;;;;;;;;;;;;;;;18.03;34.11;99299.09;106358;1268;124162;-73
2022/05/28 09:59:32;;;;;;;;;;;;;;;18.20;33.89;99308.02;107882;1267;96018;-72
2022/05/28 10:02:05;;;;;;;;;;;;;;;17.92;34.15;99309.66;107784;1267;123988;-72
2022/05/28 10:04:32;;;;;;;;;;;;;;;17.28;35.74;99340.50;107842;1267;112485;-72
2022/05/28 10:07:01;;;;;;;;;;;;;;;16.48;37.83;99355.77;107018;1268;125041;-73
2022/05/28 10:09:30;;;;;;;;;;;;;;;15.69;39.41;99360.32;107832;1268;108885;-73
2022/05/28 10:12:09;;;;;;;;;;;;;;;15.32;40.72;99386.75;106828;1268;97757;-71
2022/05/28 10:14:36;;;;;;;;;;;;;;;15.08;40.94;99367.29;106343;1268;124438;-72
2022/05/28 10:17:05;;;;;;;;;;;;;;;14.69;41.55;99367.19;106429;1268;98455;-72
2022/05/28 10:19:35;;;;;;;;;;;;;;;14.43;41.92;99375.42;107788;1267;124775;-72
2022/05/28 10:22:04;;;;;;;;;;;;;;;14.25;42.51;99375.13;107835;1267;107630;-72
2022/05/28 10:24:40;;;;;;;;;;;;;;;14.05;42.93;99371.45;107870;1267;97373;-73
2022/05/28 10:27:22;;;;;;;;;;;;;;;13.98;43.43;99375.40;107762;1267;123741;-72
2022/05/28 10:29:50;;;;;;;;;;;;;;;14.04;43.98;99378.20;107167;1268;111395;-72
2022/05/28 10:32:23;;;;;;;;;;;;;;;14.11;44.22;99384.73;106288;1268;124317;-72
2022/05/28 10:34:58;;;;;;;;;;;;;;;14.13;44.19;99380.39;106234;1270;107902;-73
2022/05/28 10:37:26;;;;;;;;;;;;;;;14.19;44.25;99374.79;106248;1268;124823;-73
2022/05/28 10:40:02;;;;;;;;;;;;;;;14.26;44.09;99372.80;106335;1268;97922;-73
2022/05/28 10:42:30;;;;;;;;;;;;;;;14.29;43.93;99363.68;106383;1268;112533;-73
2022/05/28 10:44:58;;;;;;;;;;;;;;;14.31;43.82;99367.98;105994;1268;288696;-73
2022/05/28 10:47:37;;;;;;;;;;;;;;;14.26;43.80;99366.90;106287;1270;107985;-73
2022/05/28 10:50:13;;;;;;;;;;;;;;;14.15;43.93;99374.02;106320;1268;124171;-73
2022/05/28 10:52:54;;;;;;;;;;;;;;;14.01;44.36;99366.31;106305;1268;97835;-74
2022/05/28 10:55:24;;;;;;;;;;;;;;;13.95;44.73;99366.33;106443;1268;124266;-73
2022/05/28 10:58:01;;;;;;;;;;;;;;;13.94;45.08;99374.60;106434;1268;107659;-75
2022/05/28 11:00:32;;;;;;;;;;;;;;;13.84;45.82;99371.81;106476;1268;108493;-74
2022/05/28 11:03:08;;;;;;;;;;;;;;;13.61;46.82;99380.02;106322;1268;124315;-73
2022/05/28 11:05:43;;;;;;;;;;;;;;;13.39;47.49;99385.33;106219;1268;99319;-72
2022/05/28 11:08:16;;;;;;;;;;;;;;;13.17;46.10;99394.23;106309;1268;125882;-73
2022/05/28 11:10:53;;;;;;;;;;;;;;;12.98;45.89;99400.66;106327;1270;108751;-73
2022/05/28 11:13:30;;;;;;;;;;;;;;;12.81;45.56;99410.55;106299;1268;124566;-73
2022/05/28 11:16:05;;;;;;;;;;;;;;;12.62;45.24;99410.33;106478;1268;97839;-74
2022/05/28 11:18:39;;;;;;;;;;;;;;;12.51;45.52;99408.31;106427;1268;97835;-73
2022/05/28 11:21:14;;;;;;;;;;;;;;;12.49;46.02;99411.77;107747;1266;123793;-74
2022/05/28 11:24:01;;;;;;;;;;;;;;;12.76;46.24;99414.98;107663;1267;107853;-73
2022/05/28 11:26:35;;;;;;;;;;;;;;;13.27;46.30;99416.54;106259;1268;124354;-74
2022/05/28 11:29:18;;;;;;;;;;;;;;;13.72;45.42;99402.46;106382;1268;97875;-73
2022/05/28 11:31:48;;;;;;;;;;;;;;;14.09;45.14;99402.67;107717;1268;123843;-74
2022/05/28 11:34:18;;;;;;;;;;;;;;;14.15;44.61;99392.66;107760;1268;111409;-74
2022/05/28 11:36:48;;;;;;;;;;;;;;;14.02;44.63;99400.98;107806;1268;108883;-74
2022/05/28 11:39:20;;;;;;;;;;;;;;;13.84;44.94;99397.90;107843;1267;108943;-73
2022/05/28 11:41:52;;;;;;;;;;;;;;;13.56;45.54;99415.59;107672;1270;96980;-74
2022/05/28 11:44:25;;;;;;;;;;;;;;;13.30;46.16;99411.85;107781;1267;124339;-75
2022/05/28 11:46:57;;;;;;;;;;;;;;;13.10;47.04;99402.33;107915;1268;112620;-74
2022/05/28 11:52:22;;;;;;;;;;;;;;;13.55;47.57;99388.20;107768;1268;108767;-74
2022/05/28 11:55:03;;;;;;;;;;;;;;;13.97;46.98;99381.39;106722;1268;124439;-72
2022/05/28 11:57:39;;;;;;;;;;;;;;;14.33;46.20;99372.54;106796;1268;97901;-76
2022/05/28 12:00:09;;;;;;;;;;;;;;;14.52;45.51;99365.42;106296;1268;111272;-73
2022/05/28 12:02:42;;;;;;;;;;;;;;;14.72;44.95;99366.29;107042;1268;125741;-73
2022/05/28 12:05:17;;;;;;;;;;;;;;;14.77;44.37;99350.04;107828;1268;108966;-73
2022/05/28 12:07:46;;;;;;;;;;;;;;;14.84;44.27;99352.05;107696;1267;124300;-73
2022/05/28 12:10:27;;;;;;;;;;;;;;;14.83;44.18;99348.42;107816;1267;96348;-74
2022/05/28 12:12:58;;;;;;;;;;;;;;;14.89;44.17;99337.73;106436;1268;124793;-70
2022/05/28 12:15:27;;;;;;;;;;;;;;;15.00;44.20;99343.81;106441;1268;108290;-75
2022/05/28 12:17:56;;;;;;;;;;;;;;;15.08;43.52;99348.39;106405;1268;108989;-73
2022/05/28 12:20:30;;;;;;;;;;;;;;;15.01;43.27;99359.33;106367;1268;124491;-72
2022/05/28 12:23:00;;;;;;;;;;;;;;;14.91;43.29;99358.81;106408;1268;97849;-74
2022/05/28 12:25:32;;;;;;;;;;;;;;;14.75;43.54;99360.31;106371;1268;124179;-74
2022/05/28 12:28:09;;;;;;;;;;;;;;;14.54;43.71;99356.93;106460;1268;108997;-74
2022/05/28 12:30:51;;;;;;;;;;;;;;;14.29;44.30;99359.66;106741;1267;105982;-73
2022/05/28 12:33:21;;;;;;;;;;;;;;;14.11;45.09;99360.96;106449;1268;97854;-72
2022/05/28 12:35:52;;;;;;;;;;;;;;;13.93;45.27;99363.80;106454;1267;97921;-74
2022/05/28 12:38:30;;;;;;;;;;;;;;;13.73;45.69;99364.60;106377;1267;124045;-73
2022/05/28 12:41:00;;;;;;;;;;;;;;;13.55;46.19;99367.30;106348;1268;108606;-73
2022/05/28 12:43:29;;;;;;;;;;;;;;;13.34;46.92;99375.84;107505;1267;124922;-72
2022/05/28 12:45:58;;;;;;;;;;;;;;;13.11;47.30;99383.73;107771;1267;96317;-72
2022/05/28 12:48:28;;;;;;;;;;;;;;;12.85;48.15;99387.77;107455;1267;96420;-73
2022/05/28 12:51:19;;;;;;;;;;;;;;;12.56;49.34;99386.06;106287;1268;124154;-73
2022/05/28 12:53:51;;;;;;;;;;;;;;;12.34;49.63;99388.30;106430;1268;108857;-73